Date,TemperatureHighF,TemperatureAvgF,TemperatureLowF,DewpointHighF,DewpointAvgF,DewpointLowF,HumidityHigh,HumidityAvg,HumidityLow,PressureMaxIn,PressureMinIn,WindSpeedMaxMPH,WindSpeedAvgMPH,GustSpeedMaxMPH,PrecipitationSumIn
2013-1-1,27,13,7,8,4,0,78,67,42,30.61,30.26,5,1,12,0.00
2013-1-2,30,15,3,12,4,-4,75,63,41,30.66,30.34,4,1,11,0.01
2013-1-3,24,6,-6,3,-5,-13,75,62,33,30.92,30.63,3,2,9,0.00
2013-1-4,2,-1,-3,-5,-8,-10,73,73,70,30.79,30.69,4,2,7,0.00
2013-1-6,28,11,-2,9,0,-8,76,63,37,30.81,30.35,7,2,12,0.00
2013-1-7,35,16,2,11,4,-3,77,61,31,30.52,30.17,6,1,9,0.00
2013-1-8,37,19,7,16,7,1,77,63,34,30.63,30.25,3,1,6,0.00
2013-1-9,38,19,7,17,9,2,78,65,37,30.77,30.32,5,2,11,0.00
2013-1-10,41,20,9,24,11,3,79,68,45,30.32,29.48,4,1,14,0.00
2013-1-11,40,29,19,26,18,9,86,65,36,29.63,29.31,10,3,22,0.00
2013-1-13,16,6,-1,1,-3,-7,79,65,50,30.38,30.20,6,1,15,0.00
2013-1-14,3,-2,-6,-6,-10,-14,71,68,63,30.55,30.33,2,0,4,0.00
2013-1-16,30,10,-2,9,-2,-9,73,61,36,30.98,30.65,4,2,7,0.00
2013-1-17,36,15,2,15,5,-4,77,66,38,30.98,30.59,4,2,7,0.00
2013-1-18,37,17,3,15,7,-3,79,65,38,30.85,30.48,5,1,7,0.00
2013-1-19,40,18,4,15,6,-1,79,63,28,30.83,30.48,5,2,9,0.00
2013-1-20,40,18,3,14,5,-3,76,59,29,30.76,30.39,4,1,7,0.00
2013-1-21,41,20,5,14,6,-1,75,58,25,30.74,30.39,4,1,7,0.00
2013-1-22,42,20,5,14,6,-2,74,57,27,30.75,30.41,5,2,10,0.00
2013-1-23,41,21,6,18,7,-2,72,57,29,30.78,30.44,5,2,9,0.00
2013-1-24,40,27,15,30,18,8,90,72,41,30.54,30.33,7,1,15,0.02
2013-1-25,39,34,31,34,31,29,92,89,81,30.36,30.16,6,0,12,0.05
2013-1-26,44,36,33,34,32,30,92,84,59,30.16,29.76,3,0,6,0.18
2013-1-27,44,37,32,35,32,29,91,82,59,29.85,29.62,8,1,13,0.11
2013-1-28,42,31,21,32,27,17,91,88,62,29.85,29.61,5,1,15,0.41
2013-1-29,24,18,9,17,10,3,84,72,56,30.22,29.85,6,1,17,0.04
2013-1-30,22,18,11,19,13,5,87,81,73,30.36,30.21,12,2,21,0.00
2013-1-31,38,27,22,25,21,18,87,78,52,30.45,30.25,4,0,10,0.11
2013-2-1,40,30,25,24,22,20,85,72,50,30.40,30.19,8,1,18,0.01
2013-2-2,41,26,13,24,16,8,83,68,41,30.68,30.38,4,1,7,0.00
2013-2-3,41,25,16,20,15,11,81,66,34,30.49,30.13,6,2,13,0.00
2013-2-4,43,26,10,20,13,5,81,62,36,30.43,30.11,5,1,13,0.00
2013-2-5,46,28,13,23,15,7,79,62,31,30.41,30.02,5,1,9,0.00
2013-2-6,43,30,18,31,22,13,86,72,48,30.11,29.92,4,1,10,0.01
2013-2-7,44,29,19,26,17,11,87,63,26,30.32,30.06,3,0,6,0.00
2013-2-8,44,29,14,26,14,8,75,55,30,30.16,29.59,8,1,16,0.00
2013-2-9,40,33,29,26,22,18,84,66,42,29.61,29.47,7,1,21,0.00
2013-2-14,39,31,26,25,19,14,85,63,41,30.31,30.12,7,1,19,0.01
2013-2-15,38,27,20,17,13,9,73,56,34,30.55,30.28,6,1,20,0.00
2013-2-16,43,26,12,15,11,5,75,55,30,30.68,30.23,8,2,13,0.00
2013-2-17,46,30,15,24,13,9,75,53,24,30.23,29.69,11,2,20,0.00
2013-2-18,37,27,18,16,8,4,63,44,27,30.24,29.85,10,1,22,0.00
2013-2-19,42,24,8,16,6,0,70,49,23,30.31,29.78,4,1,8,0.00
2013-2-20,46,30,17,26,14,8,77,54,25,29.80,29.43,9,2,17,0.00
2013-2-21,38,31,24,26,18,13,78,58,41,29.91,29.49,4,1,17,0.00
2013-2-22,35,25,17,17,11,3,78,58,30,30.19,29.91,8,1,22,0.00
2013-2-23,36,22,10,23,12,2,87,67,45,30.21,29.73,6,1,18,0.00
2013-2-24,31,24,19,20,16,12,83,70,56,30.20,29.76,6,1,15,0.04
2013-2-25,37,22,7,13,8,1,76,57,29,30.44,30.02,6,1,14,0.00
2013-2-26,31,25,17,19,12,7,83,59,38,30.30,29.90,11,2,27,0.03
2013-2-27,35,21,7,11,5,0,75,53,29,30.56,30.30,4,1,15,0.00
2013-2-28,39,23,6,24,7,-2,87,54,27,30.70,30.43,5,1,13,0.00
2013-3-1,44,32,25,28,24,21,88,74,47,30.57,30.37,7,1,16,0.09
2013-3-2,53,37,23,27,22,18,82,60,30,30.58,30.13,8,1,14,0.00
2013-3-3,50,37,28,34,26,22,90,67,33,30.13,29.76,6,1,14,0.20
2013-3-4,41,33,20,37,21,6,92,66,31,30.34,29.69,8,1,21,0.34
2013-3-5,46,26,12,15,8,2,70,49,18,30.63,30.19,4,1,9,0.00
2013-3-6,58,36,18,23,17,11,74,49,19,30.25,29.78,5,1,12,0.00
2013-3-7,61,43,29,23,19,12,70,43,15,29.98,29.72,4,1,14,0.00
2013-3-8,54,39,28,32,23,16,87,56,23,29.90,29.51,8,1,18,0.06
2013-3-9,36,32,27,32,29,23,91,88,83,30.12,29.50,4,1,12,0.12
2013-3-10,42,27,13,22,17,8,84,67,41,30.42,30.13,3,1,7,0.01
2013-3-11,49,34,20,26,20,14,80,59,32,30.35,30.02,4,1,13,0.00
2013-3-12,55,42,33,29,25,21,73,53,30,30.22,30.02,4,0,15,0.00
2013-3-13,58,42,28,26,23,19,80,52,23,30.41,30.18,6,1,13,0.00
2013-3-14,65,43,27,26,23,20,77,50,18,30.47,30.11,5,1,12,0.00
2013-3-15,66,46,30,28,25,23,77,49,21,30.19,29.81,4,2,12,0.00
2013-3-16,56,44,36,33,29,26,73,56,32,29.85,29.66,8,1,19,0.00
2013-3-17,48,39,30,37,24,7,91,60,23,29.79,29.58,8,1,27,0.17
2013-3-18,48,38,30,16,12,6,51,35,21,29.95,29.77,6,1,20,0.00
2013-3-19,51,40,29,19,6,-8,57,30,9,30.23,29.90,7,1,18,0.00
2013-3-20,50,34,21,34,16,4,82,50,22,30.29,29.81,6,1,12,0.01
2013-3-21,46,36,30,35,27,19,91,71,38,29.90,29.62,11,1,24,0.36
2013-3-22,46,33,24,20,15,8,74,51,22,29.91,29.55,11,2,20,0.00
2013-3-23,32,26,21,20,11,4,79,55,38,30.23,29.74,15,3,24,0.00
2013-3-24,32,20,12,16,4,-1,71,52,27,30.35,30.17,8,1,20,0.00
2013-3-25,41,25,8,7,1,-3,62,39,16,30.51,30.21,6,1,14,0.00
2013-3-26,56,38,22,23,14,5,61,38,22,30.29,29.80,9,1,16,0.00
2013-3-27,62,47,32,28,22,16,72,40,18,29.98,29.74,5,1,19,0.00
2013-3-28,62,46,30,26,23,19,71,44,20,30.08,29.85,7,1,15,0.00
2013-3-29,63,49,38,34,28,24,62,46,24,30.08,29.88,9,1,21,0.00
2013-3-30,64,47,30,32,26,20,83,50,21,30.15,29.89,10,1,19,0.00
2013-3-31,66,46,28,26,22,18,79,45,18,30.15,29.81,4,1,16,0.00
2013-4-1,62,47,33,40,27,19,66,48,21,29.94,29.63,11,2,22,0.02
2013-4-2,55,46,38,36,32,24,83,59,35,29.90,29.68,8,1,19,0.01
2013-4-3,61,47,37,33,27,18,79,50,21,30.06,29.85,5,0,14,0.00
2013-4-4,67,49,30,27,23,21,73,42,18,30.18,29.82,4,1,22,0.00
2013-4-5,49,43,41,26,25,24,55,48,44,29.85,29.80,2,0,5,0.00
2013-4-6,61,46,35,38,31,22,89,63,23,29.95,29.70,5,1,18,0.08
2013-4-7,58,45,34,40,30,22,89,60,26,29.82,29.53,10,0,20,0.02
2013-4-8,58,45,38,38,30,24,88,58,27,29.57,29.17,17,1,29,0.06
2013-4-9,42,30,19,37,23,12,87,78,67,30.12,29.26,7,2,17,0.03
2013-4-10,40,27,15,20,11,6,73,53,30,30.31,30.00,8,2,23,0.02
2013-4-11,52,36,29,31,24,14,81,63,39,30.10,29.73,6,1,16,0.02
2013-4-14,49,40,34,36,20,6,90,51,21,29.71,29.39,10,1,22,0.12
2013-4-15,42,35,32,32,29,20,91,83,44,29.75,29.39,8,1,17,0.44
2013-4-16,57,38,27,37,28,23,92,72,30,29.76,29.40,18,4,30,0.21
2013-4-17,36,28,23,23,17,9,84,64,45,30.17,29.68,8,3,21,0.00
2013-4-18,36,27,20,14,8,5,65,46,29,30.40,30.13,11,2,25,0.00
2013-4-19,47,34,20,30,15,8,79,47,28,30.41,30.00,5,1,20,0.00
2013-4-20,52,40,33,36,33,28,91,79,47,30.04,29.84,10,0,22,0.20
2013-4-21,58,46,36,37,30,18,90,59,27,30.10,29.82,4,1,17,0.00
2013-4-22,57,47,40,30,27,19,66,47,23,29.85,29.69,9,2,20,0.00
2013-4-23,45,38,29,31,16,4,77,45,19,30.16,29.78,10,2,21,0.00
2013-4-24,55,39,26,16,12,7,64,36,16,30.23,30.05,9,1,15,0.00
2013-4-25,36,32,29,17,15,12,59,50,40,30.12,30.08,3,1,6,0.00
2013-4-27,70,50,31,26,21,18,67,37,15,30.22,29.88,8,1,17,0.00
2013-4-28,75,54,33,30,24,21,68,36,15,30.05,29.60,7,1,20,0.00
2013-4-29,76,60,42,32,27,23,60,31,16,29.73,29.39,7,1,19,0.00
2013-4-30,71,58,44,37,29,23,60,36,19,29.54,29.31,11,2,22,0.00
2013-5-1,53,41,32,36,24,10,91,57,22,30.37,29.50,10,2,20,0.32
2013-5-2,42,31,25,21,19,12,74,62,31,30.60,30.34,4,0,11,0.00
2013-5-3,66,43,26,21,17,8,73,41,11,30.39,29.80,6,1,16,0.00
2013-5-4,69,52,31,30,23,16,68,37,15,29.90,29.65,8,2,22,0.00
2013-5-5,67,47,39,32,30,22,69,53,19,29.82,29.66,5,1,13,0.00
2013-5-6,65,52,45,44,34,27,89,54,26,29.81,29.63,10,1,21,0.14
2013-5-7,56,47,42,44,40,35,91,78,47,29.91,29.77,6,0,17,0.11
2013-5-8,52,43,39,41,38,36,90,83,60,29.98,29.81,4,0,12,0.31
2013-5-9,61,49,40,40,37,31,90,67,34,30.00,29.84,6,1,16,0.05
2013-5-10,67,50,35,39,33,28,88,56,24,30.14,29.95,9,1,22,0.00
2013-5-11,72,54,36,35,31,25,81,47,18,30.27,29.99,8,1,17,0.00
2013-5-12,76,58,41,38,33,30,75,43,20,30.15,29.85,7,1,18,0.00
2013-5-13,82,65,43,38,35,30,74,38,16,30.08,29.75,5,1,16,0.00
2013-5-14,84,62,44,52,38,31,74,46,15,29.89,29.56,9,1,22,0.02
2013-5-15,76,58,46,47,41,37,84,57,25,29.82,29.54,10,1,31,0.16
2013-5-16,77,59,42,51,40,33,88,56,22,29.83,29.52,5,1,17,0.03
2013-5-17,78,61,43,38,29,20,74,36,12,29.72,29.52,6,1,18,0.00
2013-5-18,65,52,43,43,32,27,61,47,31,29.73,29.55,13,1,26,0.05
2013-5-22,80,58,40,36,31,21,75,41,12,29.73,29.46,7,1,18,0.00
2013-5-23,84,64,42,35,27,17,66,30,10,29.66,29.40,11,2,27,0.00
2013-5-24,80,64,47,32,25,16,53,26,10,29.69,29.46,9,1,20,0.00
2013-5-25,82,63,39,32,26,18,64,29,10,29.85,29.58,7,1,25,0.00
2013-5-26,82,64,42,34,27,20,61,29,11,29.78,29.54,4,1,17,0.00
2013-5-27,78,61,40,30,25,20,62,29,12,29.73,29.48,5,1,18,0.00
2013-5-28,75,59,40,37,29,23,64,35,15,29.57,29.32,12,1,23,0.00
2013-5-29,61,50,42,43,39,33,87,69,41,29.66,29.36,9,1,23,0.25
2013-5-30,66,54,39,39,31,23,83,47,21,29.72,29.56,5,1,15,0.01
2013-5-31,68,56,42,33,25,14,66,33,13,29.90,29.65,7,1,22,0.00
2013-6-1,72,54,34,34,27,21,67,38,19,30.11,29.83,3,0,10,0.00
2013-6-2,85,61,37,35,30,25,74,37,12,29.99,29.50,7,1,16,0.00
2013-6-3,84,64,42,39,32,26,67,34,14,29.65,29.45,7,1,17,0.00
2013-6-4,84,65,42,38,33,26,68,34,14,29.76,29.52,6,1,17,0.00
2013-6-5,78,64,45,38,32,26,66,34,15,29.80,29.57,6,1,19,0.00
2013-6-6,82,63,41,38,33,30,69,36,16,29.90,29.64,6,1,15,0.00
2013-6-7,84,65,49,43,37,32,64,39,17,29.79,29.51,4,0,15,0.00
2013-6-8,84,65,47,43,37,33,67,39,17,29.67,29.51,7,1,18,0.00
2013-6-9,89,68,45,42,36,33,70,36,14,29.87,29.56,4,0,13,0.00
2013-6-10,94,71,47,41,36,31,67,33,12,29.76,29.44,9,0,30,0.00
2013-6-11,88,70,50,40,30,23,57,27,11,29.69,29.50,8,1,22,0.00
2013-6-12,90,68,45,38,31,26,60,29,11,29.89,29.63,4,0,15,0.00
2013-6-13,87,70,52,44,35,30,54,30,14,29.76,29.50,5,0,18,0.00
2013-6-14,87,70,50,41,31,19,64,28,11,29.71,29.47,5,1,20,0.00
2013-6-15,84,65,42,37,29,21,59,29,13,29.83,29.59,6,1,18,0.00
2013-6-16,77,63,49,46,40,33,60,43,27,29.87,29.68,5,0,14,0.00
2013-6-17,84,66,48,45,39,30,76,43,15,29.92,29.62,6,1,18,0.00
2013-6-18,87,67,48,43,35,27,67,35,12,29.79,29.45,5,0,14,0.00
2013-6-19,88,67,42,33,25,15,60,25,7,29.65,29.37,9,1,28,0.00
2013-6-20,87,69,43,34,26,19,53,23,10,29.69,29.40,7,1,25,0.00
2013-6-21,87,67,44,32,27,22,58,26,10,29.72,29.48,5,1,17,0.00
2013-6-22,84,66,44,34,28,22,59,27,12,29.67,29.48,5,0,15,0.00
2013-6-23,86,66,43,39,30,22,59,28,14,29.75,29.42,5,0,14,0.00
2013-6-24,83,66,45,37,29,21,62,29,11,29.64,29.44,7,1,24,0.00
2013-6-25,85,71,53,40,35,28,54,28,17,29.70,29.44,4,0,16,0.00
2013-6-26,92,71,48,42,37,33,64,33,14,29.90,29.65,3,0,12,0.00
2013-6-27,96,74,51,45,39,33,59,32,12,29.98,29.69,4,0,10,0.00
2013-6-28,96,74,54,50,41,32,58,33,13,29.95,29.64,6,0,18,0.00
2013-6-29,93,74,57,54,44,38,59,37,16,29.83,29.55,6,0,21,0.00
2013-6-30,91,72,54,49,45,38,70,41,16,29.86,29.56,5,0,17,0.00
2013-7-1,90,73,54,48,42,34,69,37,15,29.90,29.66,5,0,16,0.00
2013-7-2,88,74,57,47,42,36,60,34,19,29.86,29.60,5,0,13,0.00
2013-7-3,89,68,50,46,41,34,65,40,15,29.82,29.53,10,0,25,0.00
2013-7-4,87,72,54,48,45,42,70,41,22,29.78,29.46,3,0,7,0.00
2013-7-5,88,74,60,55,50,43,74,47,24,29.61,29.37,8,0,21,0.04
2013-7-6,87,71,58,56,51,43,83,54,22,29.64,29.45,15,0,27,0.04
2013-7-7,91,74,55,55,48,40,81,46,18,29.77,29.50,4,0,15,0.00
2013-7-8,89,71,55,54,48,38,84,49,18,29.83,29.65,7,0,18,0.00
2013-7-9,92,74,56,47,42,36,63,35,14,29.90,29.67,4,0,16,0.00
2013-7-10,95,78,57,47,41,35,60,31,13,29.82,29.51,3,0,15,0.00
2013-7-11,95,75,55,52,44,37,58,36,17,29.73,29.42,10,1,19,0.00
2013-7-12,87,70,61,63,54,49,78,60,29,29.76,29.50,8,0,25,0.08
2013-7-13,87,73,61,59,54,46,85,55,26,29.83,29.57,5,0,15,0.00
2013-7-14,88,73,60,57,51,45,86,52,25,29.85,29.61,7,0,20,0.01
2013-7-15,91,72,58,53,50,42,74,49,20,29.76,29.47,10,1,24,0.00
2013-7-16,91,74,56,54,51,44,79,48,21,29.78,29.51,5,0,14,0.00
2013-7-17,90,74,61,57,51,46,66,47,23,29.81,29.58,11,1,20,0.03
2013-7-18,90,72,58,55,51,45,77,51,22,29.91,29.59,9,1,25,0.00
2013-7-19,91,73,60,57,50,36,73,49,15,29.84,29.51,5,0,13,0.01
2013-7-20,94,74,55,50,42,32,75,38,12,29.77,29.45,4,0,16,0.00
2013-7-21,94,72,51,43,37,31,63,32,11,29.72,29.47,4,0,20,0.00
2013-7-22,94,76,57,45,34,25,50,25,9,29.73,29.49,4,0,14,0.00
2013-7-23,94,73,50,40,32,25,54,25,10,29.82,29.55,4,0,11,0.00
2013-7-24,84,73,60,48,40,29,46,32,22,29.76,29.60,11,0,23,0.00
2013-7-25,85,72,59,53,46,43,61,42,25,29.81,29.61,9,1,26,0.00
2013-7-26,90,72,53,50,44,37,76,43,17,29.97,29.66,2,0,10,0.00
2013-7-27,87,67,54,57,46,38,76,49,26,29.83,29.56,7,0,14,0.04
2013-7-28,76,64,58,59,55,49,90,74,45,29.74,29.54,6,0,13,0.30
2013-7-29,75,64,57,60,53,49,88,71,42,29.87,29.70,8,0,16,0.11
2013-7-30,84,66,50,50,46,42,87,53,24,30.08,29.85,5,0,15,0.00
2013-7-31,88,68,51,49,44,38,82,47,19,30.08,29.75,2,0,9,0.00
2013-8-1,73,62,51,56,49,42,81,63,39,29.96,29.77,3,0,11,0.00
2013-8-2,86,69,52,54,49,44,89,57,26,29.91,29.63,3,0,13,0.00
2013-8-3,85,68,57,54,48,44,74,54,25,29.84,29.67,7,0,17,0.03
2013-8-4,84,65,52,55,49,41,81,59,24,29.98,29.71,7,1,22,0.01
2013-8-5,83,66,52,54,50,46,87,61,27,29.97,29.68,5,0,17,0.00
2013-8-6,79,65,52,53,48,40,85,58,28,29.84,29.67,11,1,24,0.00
2013-8-7,78,64,55,50,46,41,76,55,27,29.83,29.65,7,0,24,0.02
2013-8-8,81,65,55,49,45,39,73,51,23,29.83,29.63,5,0,17,0.00
2013-8-9,76,63,50,51,45,40,77,54,30,29.94,29.76,4,0,15,0.00
2013-8-10,83,62,47,54,44,36,84,58,21,30.06,29.77,6,0,16,0.18
2013-8-11,84,64,45,48,42,36,88,52,20,30.14,29.76,9,0,19,0.00
2013-8-12,83,65,47,49,42,37,76,47,21,29.97,29.74,8,1,19,0.00
2013-8-13,82,65,48,46,41,36,79,47,20,30.01,29.78,6,1,19,0.00
2013-8-14,85,66,47,46,38,28,78,42,16,30.01,29.74,8,0,22,0.00
2013-8-15,89,67,45,46,36,32,72,38,13,30.00,29.70,6,0,15,0.00
2013-8-16,92,69,47,42,34,27,66,33,10,30.00,29.69,4,0,11,0.00
2013-8-17,92,70,48,42,37,30,61,33,14,29.97,29.62,3,0,14,0.00
2013-8-18,87,70,56,48,44,39,61,42,22,29.86,29.64,4,0,14,0.00
2013-8-19,92,71,50,49,43,36,80,44,15,29.97,29.59,5,0,11,0.00
2013-8-20,88,68,54,56,47,39,89,52,22,29.89,29.58,6,0,17,0.28
2013-8-21,89,70,52,55,49,41,90,55,19,29.98,29.63,4,0,14,0.01
2013-8-22,86,72,60,54,48,42,65,45,24,29.85,29.58,5,0,19,0.00
2013-8-23,78,64,55,63,54,50,83,72,39,29.81,29.58,12,0,30,0.62
2013-8-24,79,65,54,54,50,41,86,63,26,29.90,29.69,3,0,13,0.01
2013-8-25,77,65,59,58,53,48,85,65,39,29.90,29.75,7,0,16,0.00
2013-8-26,62,60,60,57,57,56,89,87,84,29.91,29.82,0,0,3,0.00
2013-8-27,83,66,54,62,53,47,87,66,30,29.93,29.65,5,0,15,0.02
2013-8-28,90,72,56,56,50,43,84,52,21,29.87,29.60,5,0,19,0.00
2013-8-29,91,72,54,53,49,42,81,49,19,29.93,29.66,6,0,15,0.00
2013-8-30,84,70,58,55,50,45,73,52,27,29.91,29.68,6,0,15,0.00
2013-8-31,87,70,58,54,50,42,75,52,23,29.87,29.58,10,0,25,0.00
2013-9-1,86,71,56,55,51,45,82,53,27,29.84,29.58,5,0,13,0.00
2013-9-2,86,69,54,55,49,42,80,52,22,29.87,29.62,4,0,12,0.00
2013-9-3,89,71,52,51,47,40,77,47,19,29.92,29.65,6,0,16,0.00
2013-9-4,94,74,61,52,48,44,65,44,18,29.90,29.61,7,0,15,0.00
2013-9-5,90,73,57,54,48,45,71,46,23,29.92,29.65,10,0,26,0.00
2013-9-6,92,72,55,54,49,39,78,49,18,29.93,29.58,6,0,24,0.00
2013-9-7,91,69,53,54,49,40,83,54,18,29.91,29.56,5,0,17,0.00
2013-9-8,86,69,55,52,48,45,77,51,26,29.81,29.48,12,1,28,0.00
2013-9-9,69,60,56,56,54,49,89,79,52,29.75,29.55,8,0,20,0.08
2013-9-10,70,61,56,59,55,52,91,82,58,29.81,29.68,2,0,6,0.01
2013-9-11,73,63,58,57,55,53,89,77,53,29.85,29.73,3,0,18,0.00
2013-9-12,81,62,53,56,53,45,91,74,29,29.96,29.66,6,0,17,0.01
2013-9-13,76,64,55,56,51,43,92,68,32,29.81,29.52,2,0,10,0.01
2013-9-14,70,59,55,56,52,49,92,78,49,29.76,29.59,3,0,12,0.04
2013-9-15,70,58,52,55,51,48,90,79,50,29.92,29.73,3,0,11,0.00
2013-9-16,76,60,50,52,48,42,91,68,31,30.02,29.73,3,0,10,0.00
2013-9-17,76,58,46,55,48,43,89,72,36,29.95,29.61,12,1,27,0.05
2013-9-18,65,56,50,58,51,46,92,83,57,29.75,29.57,3,0,12,0.48
2013-9-19,72,56,46,48,40,29,92,60,21,29.92,29.72,4,0,15,0.02
2013-9-20,77,55,37,37,33,26,84,50,17,30.12,29.75,4,0,12,0.00
2013-9-21,78,58,43,42,37,32,75,50,22,29.93,29.54,4,0,10,0.00
2013-9-22,61,53,44,52,45,40,91,76,48,29.64,29.45,9,0,28,0.85
2013-9-23,63,51,43,45,39,32,93,68,33,30.03,29.56,3,0,12,0.40
2013-9-24,72,51,35,42,35,30,89,59,26,30.19,29.75,4,0,12,0.00
2013-9-25,78,59,38,40,31,26,79,42,15,29.77,29.18,9,1,27,0.00
2013-9-26,77,64,45,37,30,23,65,31,14,29.48,29.18,7,1,23,0.00
2013-9-27,66,46,36,45,37,32,89,75,34,30.09,29.29,12,1,26,0.51
2013-9-28,60,44,33,34,31,24,90,65,29,30.33,30.04,4,0,12,0.01
2013-9-29,66,47,31,35,30,28,89,58,24,30.24,29.89,6,1,17,0.00
2013-9-30,74,53,36,36,32,29,80,49,21,30.00,29.66,4,0,16,0.00
2013-10-1,76,55,36,37,33,29,83,50,19,29.99,29.66,7,1,17,0.00
2013-10-2,75,53,36,36,32,29,79,50,19,29.95,29.60,3,0,11,0.00
2013-10-3,72,52,37,37,32,25,86,53,19,29.73,29.39,14,2,29,0.18
2013-10-4,41,36,30,33,26,20,90,71,49,30.33,29.65,7,1,21,0.19
2013-10-5,50,38,30,31,25,21,77,60,35,30.47,30.26,3,0,15,0.00
2013-10-6,64,42,26,33,26,18,84,58,24,30.54,30.16,4,0,7,0.00
2013-10-7,72,48,30,34,29,24,86,54,18,30.33,29.84,3,0,10,0.00
2013-10-8,73,52,35,33,29,24,78,47,19,29.92,29.54,5,1,15,0.00
2013-10-9,67,50,37,34,30,25,76,49,22,29.80,29.56,4,0,9,0.00
2013-10-10,51,47,42,41,36,29,88,67,45,29.67,29.50,4,0,12,0.17
2013-10-11,49,41,39,41,38,35,91,86,68,30.02,29.68,3,0,9,0.00
2013-10-12,58,43,31,35,31,28,91,67,32,30.18,29.89,3,0,9,0.00
2013-10-13,68,44,32,40,31,27,84,66,24,30.09,29.66,5,1,26,0.01
2013-10-14,47,40,33,41,36,30,92,84,70,30.13,29.65,5,0,17,0.00
2013-10-15,49,41,36,36,32,27,89,71,46,30.13,29.97,4,0,12,0.00
2013-10-16,51,40,31,28,24,17,73,56,28,30.18,30.00,3,0,13,0.00
2013-10-17,54,39,26,34,24,19,84,59,28,30.24,29.90,3,0,11,0.00
2013-10-18,50,39,30,34,24,16,88,59,28,30.25,29.89,6,0,13,0.00
2013-10-19,57,38,23,25,21,18,81,55,25,30.36,30.02,3,0,11,0.00
2013-10-20,58,41,28,27,24,22,79,55,28,30.10,29.83,3,0,13,0.00
2013-10-21,58,43,30,31,27,24,83,56,28,30.22,29.92,4,0,12,0.00
2013-10-22,64,42,27,30,26,21,80,56,26,30.38,30.04,4,0,11,0.00
2013-10-23,68,44,28,30,26,23,82,54,20,30.30,29.93,4,1,11,0.00
2013-10-24,69,46,29,28,24,20,78,50,18,30.27,29.92,4,1,13,0.00
2013-10-25,63,46,31,32,27,24,75,51,26,30.23,29.95,2,0,13,0.00
2013-10-26,67,46,30,31,27,23,82,53,20,30.34,30.03,3,0,12,0.00
2013-10-27,63,44,28,28,25,22,78,52,25,30.18,29.75,5,1,12,0.00
2013-10-30,40,36,33,35,32,28,92,86,64,29.96,29.84,6,1,13,0.00
2013-10-31,40,36,33,34,31,28,90,82,62,30.10,29.95,2,0,9,0.00
2013-11-1,51,38,30,36,30,25,92,77,40,30.34,30.06,3,0,10,0.00
2013-11-2,54,36,24,29,24,19,87,65,31,30.43,29.91,4,1,10,0.00
2013-11-3,58,39,28,30,25,22,82,61,28,29.95,29.52,13,2,25,0.00
2013-11-4,43,33,22,28,22,16,80,66,46,30.07,29.81,13,1,27,0.00
2013-11-5,38,30,20,26,13,4,81,51,24,30.45,29.86,13,1,27,0.00
2013-11-6,44,27,15,18,12,7,74,56,30,30.64,30.44,3,1,9,0.00
2013-11-7,54,35,19,26,20,14,82,58,30,30.70,30.11,5,1,9,0.00
2013-11-8,57,39,25,27,22,19,83,55,24,30.19,29.92,12,1,20,0.00
2013-11-9,58,39,25,26,22,19,79,53,23,30.30,30.04,7,2,14,0.00
2013-11-10,61,40,25,25,22,19,79,54,22,30.43,30.09,8,2,17,0.00
2013-11-11,61,39,24,24,21,18,79,54,22,30.50,30.20,4,1,11,0.00
2013-11-12,62,39,25,24,20,16,77,52,20,30.67,30.30,5,1,9,0.00
2013-11-13,56,37,23,23,19,15,73,52,25,30.54,30.07,9,2,19,0.00
2013-11-14,54,38,27,28,22,18,79,55,25,30.21,29.75,4,0,12,0.00
2013-11-15,54,36,23,33,24,17,86,65,26,29.84,29.48,7,1,18,0.15
2013-11-16,39,34,29,33,30,26,90,86,76,29.63,29.46,4,1,13,0.31
2013-11-17,51,39,29,31,27,22,87,63,35,30.18,29.61,5,1,17,0.01
2013-11-18,52,34,22,26,22,18,85,66,28,30.43,30.08,4,1,7,0.00
2013-11-19,46,35,23,35,26,18,88,72,44,30.16,29.85,4,1,7,0.06
2013-11-20,49,40,34,38,33,26,92,77,44,29.91,29.69,3,0,9,0.06
2013-11-21,42,35,26,38,32,22,91,87,81,30.29,29.75,8,1,15,0.18
2013-11-22,36,31,26,29,25,21,90,78,63,30.43,30.27,7,1,13,0.02
2013-11-23,39,34,30,31,30,28,91,85,71,30.38,30.12,5,1,10,0.26
2013-11-24,38,35,32,33,31,29,90,85,76,30.14,29.97,4,0,7,0.03
2013-11-25,44,34,27,29,25,22,85,70,44,30.36,30.01,3,0,8,0.00
2013-11-26,47,30,20,24,21,16,84,69,33,30.58,30.32,4,1,10,0.00
2013-11-27,45,29,19,23,19,14,84,69,35,30.54,30.17,4,1,6,0.00
2013-11-28,47,31,20,24,20,16,84,68,34,30.40,30.09,5,1,12,0.00
2013-11-29,40,28,19,26,22,15,85,77,53,30.49,30.23,10,2,19,0.00
2013-11-30,41,30,23,25,22,19,85,74,50,30.52,30.25,7,2,14,0.00
2013-12-1,36,31,26,25,23,20,82,73,61,30.49,30.25,9,1,19,0.00
2013-12-2,39,33,31,25,24,24,76,70,55,30.27,29.75,13,3,24,0.00
2013-12-3,38,31,26,30,25,22,90,78,63,29.77,29.37,5,1,13,0.03
2013-12-4,27,14,0,23,8,-7,89,78,70,30.37,29.35,0,0,1,0.00
2013-12-5,14,4,-2,3,-4,-10,74,69,57,30.41,30.20,1,0,4,0.00
2013-12-6,18,8,1,5,0,-6,75,70,54,30.47,30.30,6,0,14,0.00
2013-12-7,19,15,9,15,10,2,85,79,74,30.41,29.80,3,0,6,0.00
2013-12-8,22,17,7,17,8,-1,86,67,48,30.25,29.72,12,2,27,0.00
2013-12-9,18,7,-4,1,-3,-11,79,64,38,30.89,30.24,4,1,11,0.02
2013-12-10,19,5,-8,4,-6,-15,72,61,44,30.94,30.61,6,1,14,0.00
2013-12-11,28,12,1,12,4,-5,79,68,49,30.92,30.61,5,1,9,0.00
2013-12-12,32,13,2,14,5,-4,81,71,45,30.97,30.44,4,2,9,0.08
2013-12-13,31,17,3,16,8,-2,81,69,51,30.48,30.21,5,1,11,0.02
2013-12-14,35,19,7,17,11,3,82,71,46,30.76,30.40,3,0,5,0.10
2013-12-15,36,24,15,20,15,10,81,69,48,30.76,30.47,4,1,7,0.07
2013-12-16,40,22,11,21,14,7,83,73,44,30.76,30.47,6,1,10,0.05
2013-12-17,42,23,12,21,14,7,83,71,41,30.81,30.45,4,1,7,0.01
2013-12-18,39,25,13,23,16,8,83,72,47,30.46,29.87,4,1,7,0.00
2013-12-19,47,34,26,28,23,20,81,66,34,29.86,29.53,7,1,15,0.00
2013-12-20,37,32,24,31,26,19,89,79,68,29.76,29.61,6,1,17,0.18
2013-12-21,30,24,16,22,17,10,84,75,57,30.08,29.71,4,0,14,0.03
2013-12-22,32,22,11,20,13,6,81,71,47,30.39,30.08,4,1,12,0.00
2013-12-23,36,28,23,22,20,18,83,73,51,30.55,30.34,4,1,10,0.02
2013-12-24,36,27,11,25,19,6,79,73,55,30.62,30.22,10,1,22,0.00
2013-12-25,31,15,4,10,5,-2,80,65,37,30.90,30.62,4,2,7,0.00
2013-12-26,34,16,4,13,6,-2,77,65,38,30.90,30.58,4,2,7,0.00
2013-12-27,38,20,8,18,10,3,79,67,38,30.83,30.43,5,1,7,0.00
2013-12-28,36,22,11,19,13,6,82,71,49,30.43,30.08,4,1,6,0.00
2013-12-29,37,25,16,18,14,6,83,64,38,30.39,30.13,7,1,15,0.00
2013-12-30,38,23,15,16,12,7,76,63,37,30.59,30.33,4,1,9,0.00
2013-12-31,32,24,16,24,18,10,86,77,66,30.53,30.23,4,0,6,0.03
2014-1-1,42,30,17,26,18,8,89,66,30,30.48,30.15,7,1,19,0.09
2014-1-2,37,19,7,14,8,2,78,63,32,30.72,30.40,5,2,6,0.00